Time,TemperatureF,DewpointF,PressureIn,WindDirection,WindDirectionDegrees,WindSpeedMPH,WindSpeedGustMPH,Humidity,HourlyPrecipIn,Conditions,Clouds,dailyrainin,SoftwareType,DateUTC
2013-02-23 01:03:00,36.8,14.8,29.71,NW,313,0.0,0.0,40,0.00,,SKC,0.00,VWS V12.07,2013-02-23 09:03:00,
2013-02-23 02:02:00,38.3,9.6,29.69,NW,313,0.0,3.0,30,0.00,,SKC,0.00,VWS V12.07,2013-02-23 10:02:00,
2013-02-23 03:03:00,37.8,9.9,29.67,NW,312,0.0,0.0,31,0.00,,SKC,0.00,VWS V12.07,2013-02-23 11:03:00,
2013-02-23 04:03:00,35.9,15.1,29.66,WNW,297,3.0,5.0,42,0.00,,SKC,0.00,VWS V12.07,2013-02-23 12:03:00,
2013-02-23 05:03:00,34.9,18.2,29.66,WNW,295,3.0,6.0,50,0.00,,SKC,0.00,VWS V12.07,2013-02-23 13:03:00,
2013-02-23 06:03:00,34.3,15.7,29.66,WNW,290,2.0,7.0,46,0.00,,SKC,0.00,VWS V12.07,2013-02-23 14:03:00,
2013-02-23 07:03:00,37.3,14.0,29.66,West,270,10.0,10.0,38,0.00,,SKC,0.00,VWS V12.07,2013-02-23 15:03:00,
2013-02-23 08:02:00,42.8,12.0,29.66,WSW,250,7.0,14.0,28,0.00,,SKC,0.00,VWS V12.07,2013-02-23 16:02:00,
2013-02-23 09:02:00,40.3,17.9,29.66,West,275,9.0,16.0,40,0.00,,SKC,0.00,VWS V12.07,2013-02-23 17:02:00,
2013-02-23 10:02:00,42.8,19.0,29.65,West,269,6.0,12.0,38,0.00,,SKC,0.00,VWS V12.07,2013-02-23 18:02:00,
2013-02-23 11:02:00,46.7,17.7,29.64,West,263,11.0,18.0,31,0.00,,SKC,0.00,VWS V12.07,2013-02-23 19:02:00,
2013-02-23 12:03:00,46.2,20.1,29.62,West,271,10.0,10.0,35,0.01,,SKC,0.01,VWS V12.07,2013-02-23 20:03:00,
2013-02-23 13:02:00,46.7,20.5,29.59,West,267,6.0,14.0,35,0.00,,SKC,0.01,VWS V12.07,2013-02-23 21:02:00,
2013-02-23 14:02:00,46.2,22.6,29.58,SW,234,19.0,19.0,39,0.00,,SKC,0.01,VWS V12.07,2013-02-23 22:02:00,
2013-02-23 15:03:00,43.2,23.3,29.56,WSW,242,12.0,12.0,45,0.00,,SKC,0.01,VWS V12.07,2013-02-23 23:03:00,
2013-02-23 16:03:00,41.2,26.3,29.53,SW,228,10.0,15.0,55,0.00,,SKC,0.01,VWS V12.07,2013-02-24 00:03:00,
2013-02-23 18:03:00,33.2,25.5,29.53,West,261,6.0,11.0,73,0.00,,SKC,0.01,VWS V12.07,2013-02-24 02:03:00,
2013-02-23 19:03:00,30.7,23.4,29.53,WSW,238,9.0,15.0,74,0.00,,SKC,0.01,VWS V12.07,2013-02-24 03:03:00,
2013-02-23 20:03:00,30.7,15.6,29.54,SW,231,6.0,9.0,53,0.00,,SKC,0.01,VWS V12.07,2013-02-24 04:03:00,
2013-02-23 21:03:00,31.8,17.5,29.55,SW,233,4.0,4.0,55,0.00,,SKC,0.01,VWS V12.07,2013-02-24 05:03:00,
2013-02-23 22:03:00,33.1,19.5,29.56,WNW,302,6.0,12.0,57,0.00,,SKC,0.01,VWS V12.07,2013-02-24 06:03:00,
2013-02-23 23:03:00,35.3,22.8,29.55,North,360,9.0,12.0,60,0.00,,SKC,0.01,VWS V12.07,2013-02-24 07:03:00,